createdAt,value
2023-04-27T00:01:34.649Z,102251.50
2023-04-27T00:04:01.747Z,102224.84
2023-04-27T00:06:28.464Z,102257.41
2023-04-27T00:08:54.887Z,102216.00
2023-04-27T00:11:21.290Z,102215.63
2023-04-27T00:13:48.384Z,102247.31
2023-04-27T00:16:14.812Z,102271.34
2023-04-27T00:18:41.423Z,102276.50
2023-04-27T00:21:09.098Z,102270.88
2023-04-27T00:23:35.936Z,102284.31
2023-04-27T00:26:02.869Z,102270.66
2023-04-27T00:28:29.263Z,102271.53
2023-04-27T00:30:55.940Z,102278.47
2023-04-27T00:33:22.350Z,102249.69
2023-04-27T00:35:48.768Z,102282.09
2023-04-27T00:38:15.163Z,102263.31
2023-04-27T00:40:41.668Z,102281.47
2023-04-27T00:43:08.040Z,102281.78
2023-04-27T00:45:42.142Z,102279.09
2023-04-27T00:48:09.446Z,102254.97
2023-04-27T00:50:36.002Z,102282.47
2023-04-27T00:53:02.549Z,102279.13
2023-04-27T00:55:28.978Z,102284.41
2023-04-27T00:57:55.367Z,102279.00
2023-04-27T01:00:22.129Z,102281.75
2023-04-27T01:02:49.473Z,102277.78
2023-04-27T01:05:16.655Z,102288.97
2023-04-27T01:07:43.046Z,102295.06
2023-04-27T01:10:09.732Z,102291.25
2023-04-27T01:12:36.200Z,102292.22
2023-04-27T01:15:03.016Z,102271.56
2023-04-27T01:17:29.397Z,102285.31
2023-04-27T01:19:56.688Z,102282.16
2023-04-27T01:22:23.118Z,102288.81
2023-04-27T01:24:49.493Z,102282.94
2023-04-27T01:27:15.890Z,102282.66
2023-04-27T01:29:43.946Z,102252.06
2023-04-27T01:32:10.501Z,102238.31
2023-04-27T01:34:36.899Z,102270.75
2023-04-27T01:37:03.877Z,102252.31
2023-04-27T01:39:30.295Z,102267.72
2023-04-27T01:41:58.381Z,102259.91
2023-04-27T01:44:25.060Z,102269.97
2023-04-27T01:46:51.555Z,102268.69
2023-04-27T01:49:17.965Z,102269.69
2023-04-27T01:51:44.331Z,102269.78
2023-04-27T01:54:10.737Z,102235.66
2023-04-27T01:56:37.133Z,102274.34
2023-04-27T01:59:03.525Z,102261.75
2023-04-27T02:01:31.383Z,102272.97
2023-04-27T02:03:57.933Z,102273.06
2023-04-27T02:06:24.526Z,102277.81
2023-04-27T02:08:51.563Z,102276.28
2023-04-27T02:11:17.930Z,102285.41
2023-04-27T02:13:44.294Z,102282.47
2023-04-27T02:16:10.716Z,102284.44
2023-04-27T02:18:38.451Z,102289.75
2023-04-27T02:21:11.014Z,102286.75
2023-04-27T02:23:37.436Z,102283.69
2023-04-27T02:26:04.721Z,102297.44
2023-04-27T02:28:31.334Z,102291.88
2023-04-27T02:30:58.645Z,102298.22
2023-04-27T02:33:25.191Z,102293.06
2023-04-27T02:35:51.581Z,102293.91
2023-04-27T02:38:17.953Z,102295.84
2023-04-27T02:40:44.317Z,102273.63
2023-04-27T02:43:10.703Z,102287.88
2023-04-27T02:45:38.333Z,102285.13
2023-04-27T02:48:04.909Z,102283.41
2023-04-27T02:50:31.366Z,102278.19
2023-04-27T02:52:57.717Z,102276.06
2023-04-27T02:55:24.083Z,102272.47
2023-04-27T02:57:50.561Z,102275.28
2023-04-27T03:00:17.173Z,102281.94
2023-04-27T03:02:43.670Z,102273.69
2023-04-27T03:05:11.060Z,102278.94
2023-04-27T03:07:37.500Z,102277.66
2023-04-27T03:10:04.296Z,102276.44
2023-04-27T03:12:30.697Z,102250.91
2023-04-27T03:14:57.211Z,102260.50
2023-04-27T03:17:23.634Z,102273.69
2023-04-27T03:19:50.430Z,102252.91
2023-04-27T03:22:16.816Z,102273.63
2023-04-27T03:24:43.208Z,102266.00
2023-04-27T03:27:10.071Z,102273.78
2023-04-27T03:29:36.415Z,102263.44
2023-04-27T03:32:04.370Z,102265.97
2023-04-27T03:34:31.333Z,102271.13
2023-04-27T03:36:57.867Z,102275.44
2023-04-27T03:39:24.342Z,102262.75
2023-04-27T03:41:50.812Z,102251.63
2023-04-27T03:44:17.181Z,102265.78
2023-04-27T03:46:43.544Z,102270.34
2023-04-27T03:49:09.916Z,102265.59
2023-04-27T03:51:38.053Z,102268.72
2023-04-27T03:54:04.480Z,102268.34
2023-04-27T03:56:30.885Z,102274.00
2023-04-27T03:58:57.260Z,102276.25
2023-04-27T04:01:24.812Z,102269.16
2023-04-27T04:03:51.713Z,102255.28
2023-04-27T04:06:18.212Z,102275.81
2023-04-27T04:08:44.639Z,102276.34
2023-04-27T04:11:11.029Z,102269.91
2023-04-27T04:13:37.404Z,102288.22
2023-04-27T04:16:05.812Z,102287.06
2023-04-27T04:18:32.593Z,102281.09
2023-04-27T04:20:59.068Z,102280.06
2023-04-27T04:23:25.920Z,102257.03
2023-04-27T04:25:52.320Z,102280.47
2023-04-27T04:28:18.707Z,102271.28
2023-04-27T04:30:45.647Z,102282.47
2023-04-27T04:33:12.184Z,102289.28
2023-04-27T04:35:39.007Z,102262.47
2023-04-27T04:38:05.874Z,102290.00
2023-04-27T04:40:32.285Z,102269.50
2023-04-27T04:42:58.637Z,102292.22
2023-04-27T04:45:25.133Z,102291.09
2023-04-27T04:47:54.379Z,102292.44
2023-04-27T04:50:20.913Z,102289.81
2023-04-27T04:52:47.290Z,102296.81
2023-04-27T04:55:14.496Z,102270.00
2023-04-27T04:57:40.901Z,102294.63
2023-04-27T05:00:13.817Z,102295.19
2023-04-27T05:02:41.161Z,102287.28
2023-04-27T05:05:08.374Z,102273.81
2023-04-27T05:07:35.264Z,102257.72
2023-04-27T05:10:01.659Z,102285.63
2023-04-27T05:12:28.011Z,102291.56
2023-04-27T05:14:54.405Z,102289.03
2023-04-27T05:17:20.887Z,102301.88
2023-04-27T05:19:47.629Z,102297.06
2023-04-27T05:22:14.004Z,102307.94
2023-04-27T05:24:40.832Z,102282.06
2023-04-27T05:27:07.431Z,102309.00
2023-04-27T05:29:33.825Z,102304.06
2023-04-27T05:32:00.409Z,102314.31
2023-04-27T05:34:27.031Z,102320.94
2023-04-27T05:36:53.395Z,102290.00
2023-04-27T05:39:19.782Z,102316.66
2023-04-27T05:41:46.214Z,102318.06
2023-04-27T05:44:12.685Z,102323.72
2023-04-27T05:46:39.097Z,102324.66
2023-04-27T05:49:05.591Z,102320.09
2023-04-27T05:51:33.330Z,102327.41
2023-04-27T05:54:01.745Z,102323.16
2023-04-27T05:56:28.080Z,102323.34
2023-04-27T05:58:54.423Z,102307.19
2023-04-27T06:01:21.591Z,102308.53
2023-04-27T06:03:48.088Z,102304.63
2023-04-27T06:06:14.806Z,102296.75
2023-04-27T06:11:32.311Z,102305.16
2023-04-27T06:13:58.700Z,102300.78
2023-04-27T06:16:25.301Z,102299.66
2023-04-27T06:18:51.979Z,102309.84
2023-04-27T06:21:18.362Z,102296.91
2023-04-27T06:23:44.750Z,102297.63
2023-04-27T06:26:11.518Z,102293.09
2023-04-27T06:28:38.089Z,102301.47
2023-04-27T06:31:05.038Z,102293.09
2023-04-27T06:33:31.448Z,102299.72
2023-04-27T06:35:58.338Z,102304.78
2023-04-27T06:38:24.681Z,102295.13
2023-04-27T06:40:53.031Z,102295.53
2023-04-27T06:43:19.478Z,102296.13
2023-04-27T06:45:46.054Z,102271.94
2023-04-27T06:48:12.555Z,102293.81
2023-04-27T06:50:38.962Z,102288.38
2023-04-27T06:53:05.331Z,102292.25
2023-04-27T06:55:31.756Z,102287.28
2023-04-27T06:57:58.118Z,102295.47
2023-04-27T07:00:24.832Z,102291.19
2023-04-27T07:02:51.636Z,102290.81
2023-04-27T07:05:18.376Z,102289.91
2023-04-27T07:07:44.777Z,102292.66
2023-04-27T07:10:11.212Z,102290.44
2023-04-27T07:12:38.412Z,102285.19
2023-04-27T07:15:06.492Z,102286.28
2023-04-27T07:17:33.132Z,102302.88
2023-04-27T07:20:01.572Z,102288.06
2023-04-27T07:22:28.893Z,102289.81
2023-04-27T07:24:55.262Z,102295.00
2023-04-27T07:27:22.247Z,102302.06
2023-04-27T07:29:48.667Z,102295.50
2023-04-27T07:32:15.200Z,102283.03
2023-04-27T07:34:52.766Z,102291.00
2023-04-27T07:37:20.942Z,102278.47
2023-04-27T07:39:48.999Z,102284.06
2023-04-27T07:42:15.997Z,102278.28
2023-04-27T07:44:42.614Z,102279.38
2023-04-27T07:47:09.188Z,102282.25
2023-04-27T07:49:36.196Z,102286.66
2023-04-27T07:52:02.972Z,102276.66
2023-04-27T07:54:29.654Z,102269.91
2023-04-27T07:56:56.142Z,102282.91
2023-04-27T07:59:22.539Z,102267.00
2023-04-27T08:01:49.042Z,102269.31
2023-04-27T08:04:16.324Z,102282.25
2023-04-27T08:06:43.441Z,102285.47
2023-04-27T08:09:10.093Z,102283.28
2023-04-27T08:11:36.644Z,102244.00
2023-04-27T08:14:03.085Z,102288.31
2023-04-27T08:16:29.644Z,102282.22
2023-04-27T08:18:56.537Z,102277.34
2023-04-27T08:21:23.882Z,102288.00
2023-04-27T08:23:51.498Z,102287.16
2023-04-27T08:26:17.941Z,102288.66
2023-04-27T08:28:44.306Z,102283.59
2023-04-27T08:31:11.139Z,102262.16
2023-04-27T08:33:37.544Z,102288.06
2023-04-27T08:36:04.235Z,102286.81
2023-04-27T08:38:30.609Z,102283.78
2023-04-27T08:40:59.291Z,102292.22
2023-04-27T08:43:27.391Z,102300.25
2023-04-27T08:45:53.832Z,102306.00
2023-04-27T08:48:20.672Z,102301.78
2023-04-27T08:50:50.334Z,102293.97
2023-04-27T08:53:24.262Z,102301.94
2023-04-27T08:55:51.321Z,102296.84
2023-04-27T08:58:17.744Z,102296.16
2023-04-27T09:00:45.385Z,102292.22
2023-04-27T09:03:27.326Z,102292.75
2023-04-27T09:06:04.314Z,102298.28
2023-04-27T09:08:45.740Z,102296.78
2023-04-27T09:11:13.208Z,102286.63
2023-04-27T09:13:41.901Z,102292.44
2023-04-27T09:16:08.966Z,102286.22
2023-04-27T09:18:37.851Z,102284.38
2023-04-27T09:21:04.429Z,102284.03
2023-04-27T09:23:32.551Z,102290.44
2023-04-27T09:26:09.658Z,102275.97
2023-04-27T09:28:39.599Z,102276.38
2023-04-27T09:31:09.053Z,102280.44
2023-04-27T09:33:36.069Z,102286.09
2023-04-27T09:36:05.422Z,102279.38
2023-04-27T09:38:32.636Z,102283.84
2023-04-27T09:41:00.014Z,102274.97
2023-04-27T09:43:28.828Z,102278.59
2023-04-27T09:45:56.360Z,102275.06
2023-04-27T09:48:23.738Z,102262.69
2023-04-27T09:50:51.564Z,102273.41
2023-04-27T09:53:25.348Z,102277.03
2023-04-27T09:56:13.603Z,102272.13
2023-04-27T09:58:59.547Z,102277.00
2023-04-27T10:01:43.482Z,102271.94
2023-04-27T10:04:32.050Z,102274.25
2023-04-27T10:07:03.641Z,102273.63
2023-04-27T10:09:51.768Z,102287.06
2023-04-27T10:12:23.204Z,102292.50
2023-04-27T10:14:51.668Z,102271.66
2023-04-27T10:17:18.632Z,102270.94
2023-04-27T10:20:00.059Z,102288.53
2023-04-27T10:22:40.546Z,102272.22
2023-04-27T10:25:14.674Z,102276.28
2023-04-27T10:27:41.152Z,102262.97
2023-04-27T10:30:12.223Z,102262.09
2023-04-27T10:32:38.786Z,102243.53
2023-04-27T10:35:09.347Z,102244.31
2023-04-27T10:37:43.150Z,102253.81
2023-04-27T10:40:17.322Z,102261.25
2023-04-27T10:42:49.407Z,102265.72
2023-04-27T10:45:28.511Z,102263.34
2023-04-27T10:48:01.364Z,102255.03
2023-04-27T10:50:28.293Z,102253.59
2023-04-27T10:52:54.706Z,102242.59
2023-04-27T10:55:22.839Z,102251.78
2023-04-27T10:57:54.101Z,102253.13
2023-04-27T11:00:36.854Z,102241.78
2023-04-27T11:03:18.530Z,102259.91
2023-04-27T11:05:46.724Z,102234.19
2023-04-27T11:08:18.280Z,102249.75
2023-04-27T11:10:50.802Z,102239.19
2023-04-27T11:13:22.370Z,102245.19
2023-04-27T11:15:51.116Z,102247.22
2023-04-27T11:18:20.526Z,102247.94
2023-04-27T11:20:50.375Z,102248.22
2023-04-27T11:23:28.921Z,102262.75
2023-04-27T11:25:56.660Z,102257.03
2023-04-27T11:28:24.352Z,102264.44
2023-04-27T11:30:59.209Z,102257.50
2023-04-27T11:33:27.047Z,102250.75
2023-04-27T11:35:54.543Z,102254.28
2023-04-27T11:38:22.000Z,102246.88
2023-04-27T11:41:07.586Z,102247.75
2023-04-27T11:43:34.838Z,102250.25
2023-04-27T11:46:05.887Z,102257.88
2023-04-27T11:48:32.376Z,102262.97
2023-04-27T11:51:01.774Z,102261.25
2023-04-27T11:53:39.663Z,102228.91
2023-04-27T11:56:10.936Z,102252.09
2023-04-27T11:58:39.141Z,102263.09
2023-04-27T12:01:06.708Z,102263.22
2023-04-27T12:03:33.904Z,102246.56
2023-04-27T12:06:16.190Z,102247.28
2023-04-27T12:08:47.218Z,102230.88
2023-04-27T12:11:13.651Z,102241.38
2023-04-27T12:13:40.689Z,102245.16
2023-04-27T12:16:07.535Z,102260.06
2023-04-27T12:18:34.030Z,102258.72
2023-04-27T12:21:03.138Z,102256.72
2023-04-27T12:23:29.983Z,102255.16
2023-04-27T12:25:56.474Z,102249.06
2023-04-27T12:28:23.356Z,102249.19
2023-04-27T12:30:49.863Z,102247.78
2023-04-27T12:33:16.620Z,102246.31
2023-04-27T12:35:43.119Z,102247.31
2023-04-27T12:38:09.533Z,102243.41
2023-04-27T12:40:36.022Z,102239.25
2023-04-27T12:43:02.410Z,102253.03
2023-04-27T12:45:28.819Z,102247.56
2023-04-27T12:48:03.312Z,102246.75
2023-04-27T12:50:36.687Z,102255.16
2023-04-27T12:53:03.494Z,102252.78
2023-04-27T12:55:33.758Z,102242.81
2023-04-27T12:58:01.021Z,102237.91
2023-04-27T13:00:27.669Z,102250.59
2023-04-27T13:02:54.281Z,102243.66
2023-04-27T13:05:22.364Z,102249.63
2023-04-27T13:07:49.035Z,102247.38
2023-04-27T13:10:15.818Z,102241.63
2023-04-27T13:12:42.225Z,102243.63
2023-04-27T13:15:09.445Z,102244.34
2023-04-27T13:17:35.837Z,102237.91
2023-04-27T13:20:02.342Z,102230.88
2023-04-27T13:22:28.776Z,102230.59
2023-04-27T13:24:55.540Z,102236.91
2023-04-27T13:27:25.058Z,102233.00
2023-04-27T13:29:51.424Z,102224.94
2023-04-27T13:32:18.548Z,102225.38
2023-04-27T13:34:45.056Z,102235.19
2023-04-27T13:37:11.442Z,102220.44
2023-04-27T13:39:37.987Z,102224.75
2023-04-27T13:42:04.486Z,102213.13
2023-04-27T13:44:32.347Z,102216.53
2023-04-27T13:46:58.769Z,102219.94
2023-04-27T13:49:25.909Z,102214.00
2023-04-27T13:51:52.405Z,102213.56
2023-04-27T13:54:18.943Z,102204.31
2023-04-27T13:56:45.615Z,102196.41
2023-04-27T13:59:12.216Z,102214.34
2023-04-27T14:01:39.922Z,102209.09
2023-04-27T14:04:06.404Z,102206.31
2023-04-27T14:06:33.003Z,102191.25
2023-04-27T14:08:59.407Z,102202.78
2023-04-27T14:11:26.213Z,102196.19
2023-04-27T14:13:52.618Z,102199.22
2023-04-27T14:16:19.080Z,102188.88
2023-04-27T14:18:45.488Z,102197.81
2023-04-27T14:21:11.889Z,102193.47
2023-04-27T14:23:38.308Z,102194.59
2023-04-27T14:26:05.768Z,102198.38
2023-04-27T14:28:32.185Z,102179.63
2023-04-27T14:30:58.574Z,102192.53
2023-04-27T14:33:25.336Z,102186.38
2023-04-27T14:35:51.702Z,102157.81
2023-04-27T14:38:18.093Z,102178.25
2023-04-27T14:40:44.609Z,102184.28
2023-04-27T14:43:11.074Z,102176.25
2023-04-27T14:45:48.032Z,102177.53
2023-04-27T14:48:17.925Z,102176.25
2023-04-27T14:50:44.414Z,102184.66
2023-04-27T14:53:10.833Z,102182.38
2023-04-27T14:55:37.210Z,102183.94
2023-04-27T14:58:03.566Z,102188.22
2023-04-27T15:00:30.007Z,102181.38
2023-04-27T15:02:56.476Z,102192.28
2023-04-27T15:05:22.978Z,102185.94
2023-04-27T15:07:49.344Z,102188.06
2023-04-27T15:10:15.832Z,102187.75
2023-04-27T15:12:42.350Z,102184.13
2023-04-27T15:15:10.467Z,102186.75
2023-04-27T15:17:37.116Z,102178.69
2023-04-27T15:20:05.623Z,102177.72
2023-04-27T15:22:32.197Z,102183.69
2023-04-27T15:24:58.565Z,102176.69
2023-04-27T15:27:25.862Z,102184.56
2023-04-27T15:29:54.384Z,102188.06
2023-04-27T15:32:23.221Z,102177.81
2023-04-27T15:34:49.972Z,102181.81
2023-04-27T15:37:16.435Z,102189.66
2023-04-27T15:39:42.898Z,102171.66
2023-04-27T15:42:09.279Z,102176.59
2023-04-27T15:44:36.229Z,102168.56
2023-04-27T15:47:03.216Z,102167.53
2023-04-27T15:49:30.348Z,102157.03
2023-04-27T15:51:56.717Z,102159.25
2023-04-27T15:54:23.507Z,102157.06
2023-04-27T15:56:49.909Z,102132.97
2023-04-27T15:59:16.593Z,102155.19
2023-04-27T16:01:43.119Z,102155.72
2023-04-27T16:04:09.930Z,102155.53
2023-04-27T16:06:36.728Z,102158.06
2023-04-27T16:09:03.816Z,102155.03
2023-04-27T16:11:31.452Z,102132.97
2023-04-27T16:13:58.277Z,102132.22
2023-04-27T16:16:24.991Z,102142.06
2023-04-27T16:18:51.388Z,102126.41
2023-04-27T16:21:17.836Z,102102.97
2023-04-27T16:23:44.228Z,102134.94
2023-04-27T16:26:11.054Z,102137.38
2023-04-27T16:28:37.453Z,102137.69
2023-04-27T16:31:04.678Z,102102.59
2023-04-27T16:33:31.285Z,102088.38
2023-04-27T16:35:57.735Z,102119.22
2023-04-27T16:38:24.332Z,102123.50
2023-04-27T16:40:51.965Z,102115.19
2023-04-27T16:43:18.345Z,102113.13
2023-04-27T16:45:44.738Z,102118.22
2023-04-27T16:48:11.978Z,102115.81
2023-04-27T16:50:38.938Z,102121.84
2023-04-27T16:53:10.896Z,102114.41
2023-04-27T16:55:37.390Z,102109.31
2023-04-27T16:58:03.798Z,102115.69
2023-04-27T17:00:30.443Z,102099.00
2023-04-27T17:02:56.987Z,102101.72
2023-04-27T17:05:23.498Z,102120.25
2023-04-27T17:07:49.937Z,102117.41
2023-04-27T17:10:16.832Z,102116.06
2023-04-27T17:12:43.179Z,102115.84
2023-04-27T17:15:11.034Z,102116.38
2023-04-27T17:17:37.711Z,102115.31
2023-04-27T17:20:06.341Z,102112.56
2023-04-27T17:22:33.039Z,102117.56
2023-04-27T17:24:59.461Z,102109.13
2023-04-27T17:27:26.020Z,102118.78
2023-04-27T17:29:54.137Z,102120.84
2023-04-27T17:32:20.566Z,102110.09
2023-04-27T17:34:47.158Z,102113.81
2023-04-27T17:37:14.836Z,102116.94
2023-04-27T17:39:41.440Z,102108.84
2023-04-27T17:42:12.156Z,102102.28
2023-04-27T17:44:39.533Z,102113.44
2023-04-27T17:47:05.979Z,102100.34
2023-04-27T17:49:32.876Z,102088.28
2023-04-27T17:51:59.291Z,102092.28
2023-04-27T17:54:29.438Z,102080.66
2023-04-27T17:56:56.473Z,102099.91
2023-04-27T17:59:23.038Z,102080.09
2023-04-27T18:01:49.483Z,102085.25
2023-04-27T18:04:16.140Z,102093.50
2023-04-27T18:06:42.590Z,102081.72
2023-04-27T18:09:08.988Z,102078.38
2023-04-27T18:11:36.231Z,102077.91
2023-04-27T18:14:03.642Z,102074.25
2023-04-27T18:16:30.096Z,102070.09
2023-04-27T18:18:56.515Z,102072.41
2023-04-27T18:21:22.952Z,102058.72
2023-04-27T18:23:49.346Z,102060.81
2023-04-27T18:26:16.522Z,102063.38
2023-04-27T18:28:43.042Z,102070.38
2023-04-27T18:31:17.080Z,102064.81
2023-04-27T18:33:44.484Z,102030.63
2023-04-27T18:36:10.918Z,102041.28
2023-04-27T18:38:37.382Z,102069.16
2023-04-27T18:41:04.593Z,102052.97
2023-04-27T18:43:31.240Z,102068.38
2023-04-27T18:45:57.698Z,102075.13
2023-04-27T18:48:24.178Z,102071.69
2023-04-27T18:50:50.523Z,102079.66
2023-04-27T18:53:16.963Z,102057.09
2023-04-27T18:55:43.419Z,102078.44
2023-04-27T18:58:10.219Z,102089.31
2023-04-27T19:00:37.810Z,102088.19
2023-04-27T19:03:05.091Z,102094.72
2023-04-27T19:05:31.779Z,102097.25
2023-04-27T19:07:58.172Z,102083.00
2023-04-27T19:10:24.671Z,102090.53
2023-04-27T19:12:51.253Z,102092.41
2023-04-27T19:15:17.629Z,102088.78
2023-04-27T19:17:44.000Z,102093.66
2023-04-27T19:20:10.872Z,102088.69
2023-04-27T19:22:37.365Z,102088.28
2023-04-27T19:25:04.454Z,102089.88
2023-04-27T19:27:31.012Z,102086.34
2023-04-27T19:29:58.632Z,102067.53
2023-04-27T19:32:27.318Z,102087.28
2023-04-27T19:34:56.008Z,102091.13
2023-04-27T19:37:23.538Z,102058.91
2023-04-27T19:39:50.095Z,102092.81
2023-04-27T19:42:16.836Z,102045.91
2023-04-27T19:44:43.256Z,102089.72
2023-04-27T19:47:12.568Z,102061.31
2023-04-27T19:49:39.412Z,102084.06
2023-04-27T19:52:06.692Z,102059.19
2023-04-27T19:54:33.133Z,102084.34
2023-04-27T19:56:59.595Z,102067.25
2023-04-27T19:59:27.118Z,102074.34
2023-04-27T20:01:53.547Z,102078.28
2023-04-27T20:04:20.765Z,102073.91
2023-04-27T20:06:47.609Z,102078.94
2023-04-27T20:09:13.989Z,102067.13
2023-04-27T20:11:40.523Z,102065.38
2023-04-27T20:14:06.925Z,102057.06
2023-04-27T20:16:33.421Z,102068.47
2023-04-27T20:18:59.853Z,102061.00
2023-04-27T20:21:27.915Z,102059.16
2023-04-27T20:23:54.329Z,102057.19
2023-04-27T20:26:21.041Z,102057.88
2023-04-27T20:28:48.473Z,102058.31
2023-04-27T20:31:15.459Z,102054.59
2023-04-27T20:33:41.846Z,102058.44
2023-04-27T20:36:17.158Z,102052.34
2023-04-27T20:38:44.986Z,102049.94
2023-04-27T20:41:12.351Z,102049.97
2023-04-27T20:43:41.943Z,102042.47
2023-04-27T20:46:10.646Z,102045.56
2023-04-27T20:48:37.746Z,102046.97
2023-04-27T20:51:04.490Z,102037.09
2023-04-27T20:53:31.132Z,102035.69
2023-04-27T20:55:57.793Z,102025.47
2023-04-27T20:58:24.836Z,102041.59
2023-04-27T21:00:51.494Z,102039.91
2023-04-27T21:03:18.033Z,102019.81
2023-04-27T21:05:45.363Z,102034.09
2023-04-27T21:08:11.749Z,102026.03
2023-04-27T21:10:38.161Z,102004.16
2023-04-27T21:13:04.551Z,102042.41
2023-04-27T21:15:31.006Z,102022.63
2023-04-27T21:17:57.429Z,102026.63
2023-04-27T21:20:23.844Z,102028.88
2023-04-27T21:22:50.284Z,102025.91
2023-04-27T21:25:16.623Z,102027.97
2023-04-27T21:27:43.005Z,101985.31
2023-04-27T21:30:10.075Z,102012.44
2023-04-27T21:32:36.520Z,101992.38
2023-04-27T21:35:03.065Z,101999.44
2023-04-27T21:37:29.534Z,101984.47
2023-04-27T21:39:55.956Z,101992.75
2023-04-27T21:42:22.322Z,101998.28
2023-04-27T21:44:49.051Z,101995.06
2023-04-27T21:47:15.421Z,101994.34
2023-04-27T21:49:41.789Z,101985.31
2023-04-27T21:52:08.166Z,101991.53
2023-04-27T21:54:34.551Z,101989.19
2023-04-27T21:57:00.912Z,101988.28
2023-04-27T21:59:27.404Z,101985.34
2023-04-27T22:01:53.877Z,101976.78
2023-04-27T22:04:20.522Z,101978.41
2023-04-27T22:06:47.779Z,101978.72
2023-04-27T22:09:14.246Z,101972.59
2023-04-27T22:11:41.118Z,101972.16
2023-04-27T22:14:07.553Z,101971.34
2023-04-27T22:16:34.025Z,101969.91
2023-04-27T22:19:00.399Z,101964.78
2023-04-27T22:21:28.808Z,101964.78
2023-04-27T22:23:55.288Z,101939.81
2023-04-27T22:26:21.741Z,101968.66
2023-04-27T22:28:48.413Z,101959.06
2023-04-27T22:31:14.861Z,101960.09
2023-04-27T22:33:41.305Z,101955.50
2023-04-27T22:36:08.038Z,101948.56
2023-04-27T22:38:34.451Z,101943.72
2023-04-27T22:41:00.870Z,101933.41
2023-04-27T22:43:27.256Z,101928.03
2023-04-27T22:45:53.620Z,101930.00
2023-04-27T22:48:20.014Z,101922.34
2023-04-27T22:50:46.814Z,101926.06
2023-04-27T22:53:13.289Z,101925.31
2023-04-27T22:55:39.665Z,101919.88
2023-04-27T22:58:06.088Z,101925.09
2023-04-27T23:00:32.547Z,101923.78
2023-04-27T23:02:59.096Z,101918.13
2023-04-27T23:05:25.618Z,101920.97
2023-04-27T23:07:51.989Z,101900.19
2023-04-27T23:10:18.859Z,101915.44
2023-04-27T23:12:45.340Z,101915.88
2023-04-27T23:15:11.807Z,101896.06
2023-04-27T23:17:38.438Z,101885.09
2023-04-27T23:20:11.141Z,101896.22
2023-04-27T23:22:43.856Z,101909.63
2023-04-27T23:25:11.286Z,101873.50
2023-04-27T23:27:37.871Z,101900.31
2023-04-27T23:30:04.769Z,101906.19
2023-04-27T23:32:31.208Z,101879.47
2023-04-27T23:34:57.575Z,101887.56
2023-04-27T23:37:24.842Z,101891.47
2023-04-27T23:39:51.260Z,101876.56
2023-04-27T23:42:17.604Z,101878.97
2023-04-27T23:44:44.025Z,101872.13
2023-04-27T23:47:10.635Z,101877.13
2023-04-27T23:49:37.188Z,101869.72
2023-04-27T23:52:03.644Z,101872.03
2023-04-27T23:54:32.068Z,101867.03
2023-04-27T23:56:58.601Z,101869.72
2023-04-27T23:59:25.025Z,101870.28
